Arthur, West Virginia
Current Conditions -  °F | °C
As of 2:55 AM on Thursday 29 Jan 2015 (Local Time) from KW99 Reporting Station
Clear Clear  
Wind Chill: 13°   Ceiling: Unl
Heat Index: 13°   Visibility: 10mi
Dew Point: 11°   Wind: 0mph
Humidity: 90%   Direction: NA
Pressure: 30.31"   Gusts: NA
Location:  38.9337°N, 79.1435°W
Report Text: KW99 290755Z AUTO 00000KT 10SM CLR M10/M12 A3031 RMK AO2 T11051119 PNO
Loading
Personal Weather Stations






























Interactive Weather Map New forecast layout! Learn more

10-Day Weather Forecast

Advertisements
Track Severe Weather on mobile